Time;durP1;ratioP1;P1;durP2;ratioP2;P2;SDS_P1;SDS_P2;PMS_P1;PMS_P2;Temp;Humidity;BMP_temperature;BMP_pressure;BME280_temperature;BME280_humidity;BME280_pressure;Samples;Min_cycle;Max_cycle;Signal;HPM_P1;HPM_P2
2021/09/08 00:02:56;;;;;;;1999.90;999.90;;;;;;;15.59;74.11;101846.09;15777434;28;20044;-55
2021/09/08 00:10:28;;;;;;;1999.90;999.90;;;;;;;15.50;74.05;101845.31;15779718;28;20052;-55
2021/09/08 00:18:02;;;;;;;1999.90;999.90;;;;;;;15.38;74.15;101845.22;15778745;28;20051;-56
2021/09/08 00:25:34;;;;;;;1999.90;999.90;;;;;;;15.34;73.93;101839.44;15779030;28;20379;-58
2021/09/08 00:33:09;;;;;;;1999.90;999.90;;;;;;;15.27;73.92;101841.97;15790603;28;20089;-57
2021/09/08 00:40:43;;;;;;;1999.90;999.90;;;;;;;15.21;73.84;101840.47;15785122;28;20059;-57
2021/09/08 00:48:17;;;;;;;1999.90;999.90;;;;;;;15.09;74.15;101837.56;15767725;28;20082;-56
2021/09/08 00:55:50;;;;;;;1999.90;999.90;;;;;;;14.95;74.43;101852.66;15789209;28;20041;-64
2021/09/08 01:03:24;;;;;;;1999.90;999.90;;;;;;;15.02;73.64;101852.97;15772116;28;20036;-56
2021/09/08 01:10:58;;;;;;;1999.90;999.90;;;;;;;14.89;73.65;101841.94;15804060;28;20383;-56
2021/09/08 01:18:33;;;;;;;1999.90;999.90;;;;;;;14.89;73.68;101839.13;15794982;28;20505;-58
2021/09/08 01:26:09;;;;;;;1999.90;999.90;;;;;;;14.75;73.80;101833.69;15797718;28;20070;-54
2021/09/08 01:33:43;;;;;;;1999.90;999.90;;;;;;;14.64;74.12;101840.84;15773299;28;20048;-58
2021/09/08 01:41:18;;;;;;;1999.90;999.90;;;;;;;14.69;73.81;101829.41;15786817;28;20138;-57
2021/09/08 01:48:51;;;;;;;1999.90;999.90;;;;;;;14.58;73.95;101834.56;15759001;28;20098;-55
2021/09/08 01:56:25;;;;;;;1999.90;999.90;;;;;;;14.51;74.04;101834.25;15786843;28;20461;-54
2021/09/08 02:03:57;;;;;;;1999.90;999.90;;;;;;;14.51;74.36;101827.81;15780078;28;20075;-54
2021/09/08 02:11:30;;;;;;;1999.90;999.90;;;;;;;14.43;73.84;101824.66;15763211;28;20072;-56
2021/09/08 02:19:04;;;;;;;1999.90;999.90;;;;;;;14.30;74.29;101833.25;15783072;28;20105;-56
2021/09/08 02:26:37;;;;;;;1999.90;999.90;;;;;;;14.30;74.20;101827.66;15801459;28;20063;-59
2021/09/08 02:34:10;;;;;;;1999.90;999.90;;;;;;;14.26;74.53;101821.84;15806038;28;20040;-58
2021/09/08 02:41:43;;;;;;;1999.90;999.90;;;;;;;14.20;74.82;101817.56;15782324;28;20060;-57
2021/09/08 02:49:16;;;;;;;1999.90;999.90;;;;;;;14.12;74.78;101818.41;15760946;28;20044;-56
2021/09/08 02:56:49;;;;;;;1999.90;999.90;;;;;;;14.14;74.98;101824.50;15777326;28;20062;-54
2021/09/08 03:04:22;;;;;;;1999.90;999.90;;;;;;;14.15;74.08;101815.75;15774739;28;20044;-54
2021/09/08 03:11:56;;;;;;;1999.90;999.90;;;;;;;14.03;74.55;101820.38;15762591;28;20036;-53
2021/09/08 03:19:28;;;;;;;1999.90;999.90;;;;;;;13.95;74.53;101804.34;15773026;28;20109;-56
2021/09/08 03:27:03;;;;;;;1999.90;999.90;;;;;;;13.96;73.87;101809.63;15773773;28;20045;-57
2021/09/08 03:34:35;;;;;;;1999.90;999.90;;;;;;;13.85;74.35;101811.13;15782036;28;20384;-54
2021/09/08 03:42:09;;;;;;;1999.90;999.90;;;;;;;13.86;74.92;101812.78;15760186;28;20116;-54
2021/09/08 03:49:45;;;;;;;1999.90;999.90;;;;;;;13.80;74.63;101812.13;15758574;28;20127;-57
2021/09/08 03:57:19;;;;;;;1999.90;999.90;;;;;;;13.88;74.84;101812.47;15783977;28;20040;-55
2021/09/08 04:04:51;;;;;;;;;;;;;;;13.90;74.59;101808.16;15758028;28;20529;-59
2021/09/08 04:12:25;;;;;;;1999.90;999.90;;;;;;;13.73;75.09;101810.94;15737086;28;19920;-57
2021/09/08 04:19:57;;;;;;;;;;;;;;;13.68;75.57;101806.31;15736243;28;20070;-57
2021/09/08 04:27:30;;;;;;;1999.90;999.90;;;;;;;13.65;75.11;101800.53;15735541;28;19920;-56
2021/09/08 04:35:02;;;;;;;;;;;;;;;13.70;74.82;101801.22;15737322;28;20041;-55
2021/09/08 04:42:36;;;;;;;1999.90;999.90;;;;;;;13.61;75.03;101793.94;15736487;28;19920;-56
2021/09/08 04:50:13;;;;;;;1999.90;999.90;;;;;;;13.68;75.19;101799.91;15736551;28;20047;-56
2021/09/08 04:57:47;;;;;;;1999.90;999.90;;;;;;;13.80;75.28;101786.03;15736253;28;20094;-57
2021/09/08 05:05:20;;;;;;;1999.90;999.90;;;;;;;13.97;75.20;101783.25;15734778;28;20098;-54
2021/09/08 05:12:54;;;;;;;1999.90;999.90;;;;;;;14.19;75.05;101801.06;15753906;28;20047;-58
2021/09/08 05:20:27;;;;;;;1999.90;999.90;;;;;;;14.46;74.88;101792.28;15773011;28;20060;-56
2021/09/08 05:28:01;;;;;;;;;;;;;;;14.91;74.84;101792.69;15772249;28;20079;-59
2021/09/08 05:35:33;;;;;;;;;;;;;;;15.31;75.13;101797.91;15771250;28;19968;-57
2021/09/08 05:43:06;;;;;;;1999.90;999.90;;;;;;;15.65;75.25;101785.69;15778365;28;19990;-57
2021/09/08 05:50:39;;;;;;;1999.90;999.90;;;;;;;16.07;74.51;101789.31;15786421;28;20048;-54
2021/09/08 05:58:12;;;;;;;1999.90;999.90;;;;;;;16.43;74.15;101787.81;15806673;28;20040;-54
2021/09/08 06:05:44;;;;;;;1999.90;999.90;;;;;;;16.77;75.00;101797.09;15807701;28;20044;-56
2021/09/08 06:13:18;;;;;;;1999.90;999.90;;;;;;;17.26;73.56;101795.16;15807761;28;20048;-54
2021/09/08 06:20:53;;;;;;;1999.90;999.90;;;;;;;17.51;74.40;101812.91;15802297;28;20468;-57
2021/09/08 06:28:27;;;;;;;1999.90;999.90;;;;;;;18.06;73.26;101798.13;15743179;28;20041;-59
2021/09/08 06:35:59;;;;;;;1999.90;999.90;;;;;;;18.45;72.22;101804.91;15744405;28;20040;-60
2021/09/08 06:43:32;;;;;;;1999.90;999.90;;;;;;;19.24;70.68;101793.69;15743189;28;20045;-55
2021/09/08 06:51:05;;;;;;;1999.90;999.90;;;;;;;19.27;69.15;101792.94;15742526;28;20132;-56
2021/09/08 06:58:39;;;;;;;1999.90;999.90;;;;;;;20.01;66.30;101793.09;15741075;28;20082;-57
2021/09/08 07:06:11;;;;;;;1999.90;999.90;;;;;;;20.38;64.14;101784.13;15781298;28;20076;-64
2021/09/08 07:13:45;;;;;;;1999.90;999.90;;;;;;;20.99;61.54;101777.59;15745518;28;20059;-57
2021/09/08 07:21:17;;;;;;;1999.90;999.90;;;;;;;21.45;61.59;101777.56;15787801;28;20052;-59
2021/09/08 07:28:51;;;;;;;1999.90;999.90;;;;;;;21.99;57.12;101788.50;15801052;28;20140;-59
2021/09/08 07:36:24;;;;;;;1999.90;999.90;;;;;;;22.88;56.03;101788.75;15768137;28;20052;-61
2021/09/08 07:43:58;;;;;;;1999.90;999.90;;;;;;;23.51;55.43;101791.31;15740300;28;20417;-60
2021/09/08 07:51:30;;;;;;;1999.90;999.90;;;;;;;23.85;56.66;101785.44;15739455;28;20056;-57
2021/09/08 07:59:04;;;;;;;1999.90;999.90;;;;;;;24.21;53.55;101783.59;15739686;28;20406;-60
2021/09/08 08:06:36;;;;;;;1999.90;999.90;;;;;;;23.96;54.12;101783.47;15739859;28;20116;-58
2021/09/08 08:14:10;;;;;;;;;;;;;;;24.26;52.29;101788.09;15803035;28;20052;-59
2021/09/08 08:21:43;;;;;;;1999.90;999.90;;;;;;;25.25;50.43;101788.34;15800769;28;19920;-56
2021/09/08 08:29:17;;;;;;;1999.90;999.90;;;;;;;24.99;49.76;101766.66;15800515;28;20036;-56
2021/09/08 08:36:49;;;;;;;1999.90;999.90;;;;;;;25.55;50.71;101762.19;15801494;28;20036;-57
2021/09/08 08:44:25;;;;;;;1999.90;999.90;;;;;;;26.06;49.05;101754.31;15807158;28;20472;-57
2021/09/08 08:51:58;;;;;;;1999.90;999.90;;;;;;;26.12;46.68;101756.28;15794661;28;20135;-58
2021/09/08 08:59:31;;;;;;;1999.90;999.90;;;;;;;26.60;46.81;101754.84;15813425;28;20047;-58
2021/09/08 09:07:04;;;;;;;1999.90;999.90;;;;;;;26.84;46.42;101751.00;15808661;28;20043;-58
2021/09/08 09:14:40;;;;;;;1999.90;999.90;;;;;;;26.69;46.66;101750.28;15749712;28;20048;-58
2021/09/08 09:22:12;;;;;;;1999.90;999.90;;;;;;;26.98;45.77;101750.06;15749156;28;20040;-61
2021/09/08 09:29:46;;;;;;;;;;;;;;;27.50;45.29;101741.41;15748602;28;20501;-59
2021/09/08 09:37:19;;;;;;;1999.90;999.90;;;;;;;27.23;43.41;101741.28;15745780;28;19921;-57
2021/09/08 09:45:00;;;;;;;1999.90;999.90;;;;;;;28.02;42.69;101733.47;15745798;28;20186;-59
2021/09/08 09:52:33;;;;;;;1999.90;999.90;;;;;;;27.72;44.24;101731.38;15744170;28;20127;-56
2021/09/08 10:00:08;;;;;;;1999.90;999.90;;;;;;;29.22;42.36;101723.47;15746327;28;20049;-59
2021/09/08 10:07:45;;;;;;;1999.90;999.90;;;;;;;28.36;42.36;101721.97;15754647;28;20054;-59
2021/09/08 10:15:20;;;;;;;1999.90;999.90;;;;;;;27.56;44.59;101706.13;15809082;28;20044;-58
2021/09/08 10:22:53;;;;;;;1999.90;999.90;;;;;;;28.97;40.70;101687.38;15808052;28;20068;-57
2021/09/08 10:30:27;;;;;;;1999.90;999.90;;;;;;;30.36;40.49;101686.66;15806555;28;20044;-57
2021/09/08 10:38:00;;;;;;;1999.90;999.90;;;;;;;29.08;40.58;101675.72;15805311;28;20071;-58
2021/09/08 10:45:34;;;;;;;1999.90;999.90;;;;;;;29.60;38.64;101678.81;15805805;28;20085;-58
2021/09/08 10:53:28;;;;;;;1999.90;999.90;;;;;;;30.26;38.13;101665.50;15805417;28;20113;-58
2021/09/08 11:01:14;;;;;;;1999.90;999.90;;;;;;;30.42;38.22;101665.50;15804441;28;20047;-55
2021/09/08 11:09:09;;;;;;;1999.90;999.90;;;;;;;30.97;38.58;101645.63;15767942;28;20131;-54
2021/09/08 11:17:00;;;;;;;1999.90;999.90;;;;;;;29.93;38.44;101647.31;15740662;28;20057;-55
2021/09/08 11:24:39;;;;;;;1999.90;999.90;;;;;;;31.01;35.73;101641.38;15740752;28;20041;-57
2021/09/08 11:32:55;;;;;;;1999.90;999.90;;;;;;;30.95;35.67;101627.97;15739112;28;20049;-55
2021/09/08 11:40:46;;;;;;;1999.90;999.90;;;;;;;31.31;35.40;101619.19;15739029;28;20059;-55
2021/09/08 11:48:31;;;;;;;1999.90;999.90;;;;;;;31.11;36.02;101618.50;15738164;28;20476;-57
2021/09/08 11:56:08;;;;;;;1999.90;999.90;;;;;;;31.62;34.43;101607.97;15739485;28;20044;-60
2021/09/08 12:04:06;;;;;;;1999.90;999.90;;;;;;;31.78;34.10;101598.44;15739739;28;20036;-61
2021/09/08 12:11:41;;;;;;;1999.90;999.90;;;;;;;33.30;33.12;101604.00;15781480;28;20051;-60
2021/09/08 12:19:17;;;;;;;1999.90;999.90;;;;;;;34.63;30.44;101590.91;15807568;28;20059;-57
2021/09/08 12:26:49;;;;;;;1999.90;999.90;;;;;;;33.64;32.43;101578.38;15792782;28;20115;-60
2021/09/08 12:34:24;;;;;;;1999.90;999.90;;;;;;;35.64;29.05;101565.59;15802731;28;20599;-60
2021/09/08 12:41:59;;;;;;;1999.90;999.90;;;;;;;34.77;30.09;101567.09;15783020;28;20110;-59
2021/09/08 12:49:33;;;;;;;1999.90;999.90;;;;;;;37.79;26.76;101559.78;15768004;28;20048;-58
2021/09/08 12:57:07;;;;;;;1999.90;999.90;;;;;;;36.69;26.24;101552.06;15755617;28;20049;-59
2021/09/08 13:04:42;;;;;;;1999.90;999.90;;;;;;;35.49;28.48;101542.25;15808597;28;20036;-56
2021/09/08 13:12:15;;;;;;;1999.90;999.90;;;;;;;37.17;25.57;101537.44;15772952;28;20432;-60
2021/09/08 13:19:49;;;;;;;1999.90;999.90;;;;;;;37.56;26.10;101526.53;15776382;28;20447;-59
2021/09/08 13:27:24;;;;;;;1999.90;999.90;;;;;;;35.02;28.26;101519.63;15746487;28;20067;-59
2021/09/08 13:34:58;;;;;;;1999.90;999.90;;;;;;;36.00;27.22;101500.00;15746729;28;20063;-59
2021/09/08 13:42:32;;;;;;;1999.90;999.90;;;;;;;35.25;28.56;101489.13;15762153;28;20398;-61
2021/09/08 13:50:07;;;;;;;1999.90;999.90;;;;;;;31.51;32.98;101472.75;15746138;28;20076;-61
2021/09/08 13:57:39;;;;;;;1999.90;999.90;;;;;;;29.93;35.33;101457.41;15743934;28;20048;-59
2021/09/08 14:05:13;;;;;;;1999.90;999.90;;;;;;;29.95;36.39;101457.78;15751446;28;20136;-60
2021/09/08 14:12:45;;;;;;;1999.90;999.90;;;;;;;29.42;36.89;101444.66;15776221;28;20131;-61
2021/09/08 14:20:19;;;;;;;1999.90;999.90;;;;;;;29.05;37.69;101435.22;15765249;28;20036;-61
2021/09/08 14:27:51;;;;;;;1999.90;999.90;;;;;;;28.55;38.35;101433.34;15760093;28;20049;-61
2021/09/08 14:35:25;;;;;;;1999.90;999.90;;;;;;;28.67;38.69;101418.38;15782457;28;20048;-60
2021/09/08 14:42:59;;;;;;;1999.90;999.90;;;;;;;28.77;39.46;101410.78;15745585;28;20051;-58
2021/09/08 14:50:32;;;;;;;1999.90;999.90;;;;;;;28.05;39.63;101393.31;15749102;28;20115;-59
2021/09/08 14:58:05;;;;;;;1999.90;999.90;;;;;;;28.30;40.48;101395.72;15783682;28;20040;-60
2021/09/08 15:05:39;;;;;;;1999.90;999.90;;;;;;;28.02;42.18;101382.69;15768885;28;20043;-60
2021/09/08 15:13:11;;;;;;;1999.90;999.90;;;;;;;27.69;42.70;101376.72;15775879;28;20048;-60
2021/09/08 15:20:45;;;;;;;1999.90;999.90;;;;;;;28.02;41.75;101368.34;15783459;28;20123;-60
2021/09/08 15:28:17;;;;;;;1999.90;999.90;;;;;;;27.50;42.37;101361.03;15766417;28;20036;-60
2021/09/08 15:35:51;;;;;;;1999.90;999.90;;;;;;;27.63;43.01;101349.78;15794498;28;20070;-60
2021/09/08 15:43:23;;;;;;;1999.90;999.90;;;;;;;27.78;41.46;101339.69;15765668;28;20634;-60
2021/09/08 15:50:57;;;;;;;1999.90;999.90;;;;;;;27.54;42.67;101347.47;15789330;28;20044;-58
2021/09/08 15:58:31;;;;;;;1999.90;999.90;;;;;;;26.80;44.25;101328.53;15777088;28;20044;-58
2021/09/08 16:06:08;;;;;;;1999.90;999.90;;;;;;;27.21;43.53;101328.38;15800608;28;20040;-58
2021/09/08 16:13:41;;;;;;;1999.90;999.90;;;;;;;27.05;44.16;101314.69;15759387;28;20446;-57
2021/09/08 16:21:15;;;;;;;;;;;;;;;26.88;44.95;101310.81;15780302;28;20135;-59
2021/09/08 16:28:48;;;;;;;1999.90;999.90;;;;;;;26.60;45.54;101302.63;15763294;28;19966;-61
2021/09/08 16:36:22;;;;;;;1999.90;999.90;;;;;;;26.42;45.78;101292.22;15759825;28;20047;-61
2021/09/08 16:43:54;;;;;;;1999.90;999.90;;;;;;;26.42;47.80;101285.69;15796674;28;20036;-61
2021/09/08 16:51:29;;;;;;;1999.90;999.90;;;;;;;26.41;50.08;101276.31;15794930;28;20090;-60
2021/09/08 16:59:02;;;;;;;1999.90;999.90;;;;;;;26.22;50.59;101276.94;15740128;28;20032;-60
2021/09/08 17:06:35;;;;;;;1999.90;999.90;;;;;;;25.81;51.76;101265.56;15805218;28;20464;-59
2021/09/08 17:14:08;;;;;;;1999.90;999.90;;;;;;;25.51;50.95;101260.53;15777540;28;20113;-58
2021/09/08 17:21:41;;;;;;;1999.90;999.90;;;;;;;25.45;52.50;101265.09;15784243;28;20441;-59
2021/09/08 17:29:15;;;;;;;1999.90;999.90;;;;;;;25.13;53.48;101249.03;15781184;28;20505;-60
2021/09/08 17:36:49;;;;;;;1999.90;999.90;;;;;;;24.76;55.11;101261.09;15801155;28;20043;-59
2021/09/08 17:44:21;;;;;;;1999.90;999.90;;;;;;;24.41;55.46;101264.97;15777840;28;20066;-60
2021/09/08 17:51:56;;;;;;;1999.90;999.90;;;;;;;24.11;56.36;101268.34;15800470;28;20118;-58
2021/09/08 17:59:28;;;;;;;1999.90;999.90;;;;;;;23.73;57.49;101259.47;15778490;28;20040;-57
2021/09/08 18:07:02;;;;;;;1999.90;999.90;;;;;;;23.46;58.66;101267.66;15768206;28;20394;-59
2021/09/08 18:14:35;;;;;;;1999.90;999.90;;;;;;;23.17;59.51;101261.13;15746943;28;20131;-61
2021/09/08 18:22:09;;;;;;;1999.90;999.90;;;;;;;22.97;60.19;101262.75;15789106;28;20045;-59
2021/09/08 18:29:42;;;;;;;1999.90;999.90;;;;;;;22.71;61.03;101266.72;15784472;28;20040;-59
2021/09/08 18:37:19;;;;;;;1999.90;999.90;;;;;;;22.49;61.50;101260.19;15771967;28;20100;-59
2021/09/08 18:44:54;;;;;;;1999.90;999.90;;;;;;;22.29;61.83;101254.00;15841020;28;20504;-60
2021/09/08 18:52:27;;;;;;;1999.90;999.90;;;;;;;22.11;62.84;101250.31;15801224;28;20048;-59
2021/09/08 19:00:00;;;;;;;1999.90;999.90;;;;;;;21.91;62.70;101266.81;15759219;28;20120;-60
2021/09/08 19:07:33;;;;;;;1999.90;999.90;;;;;;;21.81;62.94;101257.03;15761473;28;20044;-60
2021/09/08 19:15:08;;;;;;;1999.90;999.90;;;;;;;21.60;63.59;101249.19;15794665;28;20040;-61
2021/09/08 19:22:44;;;;;;;1999.90;999.90;;;;;;;21.33;64.23;101245.75;15782793;28;20542;-61
2021/09/08 19:30:16;;;;;;;1999.90;999.90;;;;;;;21.19;64.45;101237.09;15773228;28;20105;-60
2021/09/08 19:37:50;;;;;;;1999.90;999.90;;;;;;;21.06;64.27;101227.25;15789146;28;20046;-62
2021/09/08 19:45:22;;;;;;;1999.90;999.90;;;;;;;20.89;64.70;101225.06;15778050;28;20074;-62
2021/09/08 19:52:56;;;;;;;1999.90;999.90;;;;;;;20.83;65.16;101232.31;15756470;28;20045;-60
2021/09/08 20:00:28;;;;;;;1999.90;999.90;;;;;;;20.58;65.68;101221.53;15770258;28;20044;-62
2021/09/08 20:08:02;;;;;;;1999.90;999.90;;;;;;;20.51;65.03;101221.47;15785675;28;20051;-62
2021/09/08 20:15:34;;;;;;;1999.90;999.90;;;;;;;20.31;65.86;101222.81;15796920;28;20135;-60
2021/09/08 20:23:08;;;;;;;1999.90;999.90;;;;;;;20.18;66.09;101217.41;15762043;28;20091;-60
2021/09/08 20:30:41;;;;;;;1999.90;999.90;;;;;;;20.04;66.19;101210.78;15794474;28;20170;-62
2021/09/08 20:38:14;;;;;;;1999.90;999.90;;;;;;;19.98;66.38;101213.13;15746682;28;20170;-58
2021/09/08 20:45:50;;;;;;;1999.90;999.90;;;;;;;19.91;66.34;101210.22;15757169;28;20040;-59
2021/09/08 20:53:23;;;;;;;1999.90;999.90;;;;;;;19.87;66.62;101210.16;15748535;28;20425;-62
2021/09/08 21:00:56;;;;;;;1999.90;999.90;;;;;;;19.81;65.63;101197.56;15784216;28;20044;-62
2021/09/08 21:08:31;;;;;;;1999.90;999.90;;;;;;;20.11;65.69;101193.84;15770507;28;20040;-58
2021/09/08 21:16:07;;;;;;;1999.90;999.90;;;;;;;20.03;65.56;101195.81;15763998;28;20080;-61
2021/09/08 21:23:41;;;;;;;1999.90;999.90;;;;;;;19.92;65.80;101192.03;15790085;28;20075;-59
2021/09/08 21:31:13;;;;;;;1999.90;999.90;;;;;;;19.69;66.23;101194.13;15799039;28;20067;-66
2021/09/08 21:38:48;;;;;;;1999.90;999.90;;;;;;;19.58;66.56;101196.81;15789350;28;20040;-60
2021/09/08 21:46:20;;;;;;;1999.90;999.90;;;;;;;19.43;67.02;101200.63;15769797;28;20317;-60
2021/09/08 21:53:55;;;;;;;1999.90;999.90;;;;;;;19.33;67.08;101190.75;15787387;28;20076;-60
2021/09/08 22:01:27;;;;;;;1999.90;999.90;;;;;;;19.26;67.68;101193.47;15800839;28;20608;-60
2021/09/08 22:09:01;;;;;;;1999.90;999.90;;;;;;;19.25;67.25;101177.69;15783608;28;20464;-60
2021/09/08 22:16:33;;;;;;;1999.90;999.90;;;;;;;19.08;67.65;101183.91;15787746;28;20051;-60
2021/09/08 22:24:07;;;;;;;1999.90;999.90;;;;;;;18.93;68.34;101180.03;15802238;28;20051;-60
2021/09/08 22:31:39;;;;;;;1999.90;999.90;;;;;;;18.79;68.56;101169.31;15788739;28;20551;-59
2021/09/08 22:39:13;;;;;;;1999.90;999.90;;;;;;;18.72;68.84;101161.50;15746805;28;20490;-61
2021/09/08 22:46:45;;;;;;;1999.90;999.90;;;;;;;18.61;68.35;101154.00;15753383;28;20111;-60
2021/09/08 22:54:19;;;;;;;1999.90;999.90;;;;;;;18.64;68.72;101145.63;15768520;28;20468;-59
2021/09/08 23:01:51;;;;;;;1999.90;999.90;;;;;;;18.54;68.78;101151.88;15781723;28;20052;-59
2021/09/08 23:09:25;;;;;;;1999.90;999.90;;;;;;;18.41;69.30;101144.78;15770463;28;20852;-60
2021/09/08 23:16:58;;;;;;;1999.90;999.90;;;;;;;18.29;69.57;101142.94;15782788;28;20048;-59
2021/09/08 23:24:32;;;;;;;1999.90;999.90;;;;;;;18.19;69.91;101137.91;15762942;28;20050;-60
2021/09/08 23:32:06;;;;;;;1999.90;999.90;;;;;;;18.08;70.26;101136.91;15769467;28;20520;-59
2021/09/08 23:39:40;;;;;;;;;;;;;;;18.03;70.53;101137.19;15801330;28;20416;-59
2021/09/08 23:47:14;;;;;;;1999.90;999.90;;;;;;;17.93;70.59;101130.16;15798441;28;20291;-61
2021/09/08 23:54:48;;;;;;;1999.90;999.90;;;;;;;17.88;70.79;101124.81;15762826;28;20053;-61
